createdAt,value
2023-01-25T00:00:30.858Z,-1.87
2023-01-25T00:01:33.991Z,-1.87
2023-01-25T00:02:37.363Z,-1.87
2023-01-25T00:03:40.439Z,-1.88
2023-01-25T00:04:43.606Z,-1.89
2023-01-25T00:05:46.659Z,-1.90
2023-01-25T00:06:50.234Z,-1.91
2023-01-25T00:07:53.416Z,-1.92
2023-01-25T00:08:58.377Z,-1.93
2023-01-25T00:10:01.480Z,-1.93
2023-01-25T00:11:04.763Z,-1.92
2023-01-25T00:12:07.840Z,-1.92
2023-01-25T00:13:10.988Z,-1.92
2023-01-25T00:14:15.144Z,-1.91
2023-01-25T00:15:18.539Z,-1.89
2023-01-25T00:16:22.214Z,-1.89
2023-01-25T00:17:26.209Z,-1.87
2023-01-25T00:18:29.308Z,-1.86
2023-01-25T00:19:32.501Z,-1.85
2023-01-25T00:20:35.810Z,-1.85
2023-01-25T00:21:39.233Z,-1.85
2023-01-25T00:22:42.402Z,-1.84
2023-01-25T00:23:45.701Z,-1.83
2023-01-25T00:24:48.698Z,-1.84
2023-01-25T00:25:58.817Z,-1.82
2023-01-25T00:27:02.695Z,-1.82
2023-01-25T00:28:07.662Z,-1.83
2023-01-25T00:29:14.487Z,-1.84
2023-01-25T00:30:17.929Z,-1.83
2023-01-25T00:31:43.241Z,-1.82
2023-01-25T00:34:29.188Z,-1.73
2023-01-25T00:35:32.351Z,-1.86
2023-01-25T00:36:40.829Z,-1.86
2023-01-25T00:37:49.159Z,-1.86
2023-01-25T00:38:53.741Z,-1.87
2023-01-25T00:39:56.924Z,-1.86
2023-01-25T00:41:00.417Z,-1.87
2023-01-25T00:42:04.874Z,-1.87
2023-01-25T00:43:08.098Z,-1.86
2023-01-25T00:44:11.187Z,-1.87
2023-01-25T00:45:14.363Z,-1.87
2023-01-25T00:46:18.071Z,-1.86
2023-01-25T00:47:21.273Z,-1.86
2023-01-25T00:48:24.317Z,-1.86
2023-01-25T00:49:27.891Z,-1.87
2023-01-25T00:50:31.196Z,-1.87
2023-01-25T00:51:34.249Z,-1.87
2023-01-25T00:52:37.302Z,-1.88
2023-01-25T00:53:40.494Z,-1.87
2023-01-25T00:54:43.774Z,-1.88
2023-01-25T00:55:53.545Z,-1.88
2023-01-25T00:56:56.871Z,-1.88
2023-01-25T00:58:00.240Z,-1.92
2023-01-25T00:59:03.414Z,-1.93
2023-01-25T01:00:08.007Z,-1.96
2023-01-25T01:01:11.536Z,-1.96
2023-01-25T01:02:14.727Z,-1.97
2023-01-25T01:03:17.794Z,-1.98
2023-01-25T01:04:24.880Z,-1.98
2023-01-25T01:05:28.958Z,-1.98
2023-01-25T01:06:34.195Z,-1.99
2023-01-25T01:07:37.304Z,-2.00
2023-01-25T01:08:41.775Z,-2.01
2023-01-25T01:09:44.977Z,-2.02
2023-01-25T01:10:48.224Z,-2.04
2023-01-25T01:11:51.521Z,-2.05
2023-01-25T01:12:54.779Z,-2.07
2023-01-25T01:13:58.965Z,-2.08
2023-01-25T01:15:02.213Z,-2.08
2023-01-25T01:16:10.335Z,-2.08
2023-01-25T01:17:13.483Z,-2.09
2023-01-25T01:18:16.709Z,-2.11
2023-01-25T01:19:20.681Z,-2.11
2023-01-25T01:20:23.753Z,-2.11
2023-01-25T01:21:28.661Z,-2.09
2023-01-25T01:22:33.056Z,-2.11
2023-01-25T01:23:36.641Z,-2.08
2023-01-25T01:24:39.789Z,-2.07
2023-01-25T01:25:43.600Z,-2.06
2023-01-25T01:26:47.197Z,-2.05
2023-01-25T01:27:50.296Z,-2.05
2023-01-25T01:28:53.449Z,-2.03
2023-01-25T01:29:56.527Z,-2.05
2023-01-25T01:31:03.701Z,-2.08
2023-01-25T01:32:08.870Z,-2.11
2023-01-25T01:33:12.204Z,-2.18
2023-01-25T01:34:15.419Z,-2.25
2023-01-25T01:35:18.566Z,-2.31
2023-01-25T01:36:23.838Z,-2.34
2023-01-25T01:37:27.051Z,-2.37
2023-01-25T01:38:30.149Z,-2.39
2023-01-25T01:39:33.626Z,-2.39
2023-01-25T01:40:36.988Z,-2.37
2023-01-25T01:41:40.495Z,-2.37
2023-01-25T01:43:01.190Z,-2.37
2023-01-25T01:44:04.648Z,-2.37
2023-01-25T01:45:34.006Z,-2.39
2023-01-25T01:46:39.363Z,-2.43
2023-01-25T01:47:46.164Z,-2.46
2023-01-25T01:48:56.267Z,-2.47
2023-01-25T01:50:03.462Z,-2.48
2023-01-25T01:51:26.356Z,-2.48
2023-01-25T01:52:32.860Z,-2.48
2023-01-25T01:53:37.341Z,-2.47
2023-01-25T01:54:47.022Z,-2.47
2023-01-25T01:55:51.660Z,-2.47
2023-01-25T01:57:16.232Z,-2.46
2023-01-25T01:58:19.712Z,-2.44
2023-01-25T01:59:25.931Z,-2.43
2023-01-25T02:00:32.888Z,-2.43
2023-01-25T02:01:37.602Z,-2.43
2023-01-25T02:02:41.821Z,-2.41
2023-01-25T02:03:47.227Z,-2.39
2023-01-25T02:04:51.433Z,-2.37
2023-01-25T02:06:03.692Z,-2.36
2023-01-25T02:07:13.561Z,-2.35
2023-01-25T02:08:16.887Z,-2.35
2023-01-25T02:09:23.409Z,-2.37
2023-01-25T02:10:28.230Z,-2.38
2023-01-25T02:11:33.552Z,-2.39
2023-01-25T02:12:37.971Z,-2.40
2023-01-25T02:13:43.843Z,-2.42
2023-01-25T02:14:51.101Z,-2.42
2023-01-25T02:15:58.285Z,-2.43
2023-01-25T02:17:03.410Z,-2.44
2023-01-25T02:18:07.607Z,-2.44
2023-01-25T02:19:14.364Z,-2.44
2023-01-25T02:20:42.169Z,-2.45
2023-01-25T02:21:47.360Z,-2.47
2023-01-25T02:22:59.716Z,-2.50
2023-01-25T02:24:09.799Z,-2.52
2023-01-25T02:25:16.395Z,-2.55
2023-01-25T02:26:22.428Z,-2.56
2023-01-25T02:27:27.631Z,-2.56
2023-01-25T02:28:39.977Z,-2.56
2023-01-25T02:29:43.890Z,-2.56
2023-01-25T02:30:47.527Z,-2.56
2023-01-25T02:32:03.563Z,-2.58
2023-01-25T02:33:06.783Z,-2.60
2023-01-25T02:34:09.964Z,-2.62
2023-01-25T02:35:24.231Z,-2.63
2023-01-25T02:36:30.470Z,-2.63
2023-01-25T02:37:33.951Z,-2.62
2023-01-25T02:38:41.017Z,-2.62
2023-01-25T02:39:44.218Z,-2.61
2023-01-25T02:40:50.861Z,-2.60
2023-01-25T02:41:54.397Z,-2.60
2023-01-25T02:42:58.139Z,-2.58
2023-01-25T02:44:04.674Z,-2.57
2023-01-25T02:45:11.711Z,-2.56
2023-01-25T02:46:28.037Z,-2.58
2023-01-25T02:47:31.304Z,-2.57
2023-01-25T02:48:34.514Z,-2.57
2023-01-25T02:49:38.007Z,-2.56
2023-01-25T02:50:43.299Z,-2.56
2023-01-25T02:51:51.312Z,-2.55
2023-01-25T02:52:54.496Z,-2.55
2023-01-25T02:53:58.286Z,-2.56
2023-01-25T02:55:01.603Z,-2.58
2023-01-25T02:56:05.242Z,-2.59
2023-01-25T02:57:09.105Z,-2.61
2023-01-25T02:58:14.116Z,-2.62
2023-01-25T02:59:18.485Z,-2.64
2023-01-25T03:00:23.873Z,-2.65
2023-01-25T03:01:27.077Z,-2.66
2023-01-25T03:02:30.361Z,-2.67
2023-01-25T03:03:33.539Z,-2.66
2023-01-25T03:04:37.502Z,-2.65
2023-01-25T03:05:41.067Z,-2.65
2023-01-25T03:06:44.214Z,-2.65
2023-01-25T03:07:47.768Z,-2.63
2023-01-25T03:08:50.835Z,-2.62
2023-01-25T03:09:54.110Z,-2.62
2023-01-25T03:10:59.645Z,-2.61
2023-01-25T03:12:04.381Z,-2.62
2023-01-25T03:13:08.344Z,-2.61
2023-01-25T03:14:11.416Z,-2.63
2023-01-25T03:15:15.107Z,-2.62
2023-01-25T03:16:18.386Z,-2.63
2023-01-25T03:17:21.764Z,-2.63
2023-01-25T03:18:25.141Z,-2.64
2023-01-25T03:19:28.213Z,-2.65
2023-01-25T03:20:31.367Z,-2.65
2023-01-25T03:21:34.452Z,-2.66
2023-01-25T03:22:37.495Z,-2.66
2023-01-25T03:23:41.564Z,-2.68
2023-01-25T03:24:44.704Z,-2.70
2023-01-25T03:25:50.358Z,-2.73
2023-01-25T03:27:13.497Z,-2.73
2023-01-25T03:28:21.084Z,-2.75
2023-01-25T03:29:24.263Z,-2.76
2023-01-25T03:30:28.436Z,-2.76
2023-01-25T03:31:31.689Z,-2.77
2023-01-25T03:32:35.275Z,-2.76
2023-01-25T03:33:41.232Z,-2.77
2023-01-25T03:34:44.504Z,-2.78
2023-01-25T03:35:53.351Z,-2.78
2023-01-25T03:36:56.410Z,-2.76
2023-01-25T03:37:59.547Z,-2.78
2023-01-25T03:39:02.623Z,-2.79
2023-01-25T03:40:06.901Z,-2.79
2023-01-25T03:41:12.419Z,-2.81
2023-01-25T03:42:15.654Z,-2.81
2023-01-25T03:43:19.524Z,-2.82
2023-01-25T03:44:24.360Z,-2.82
2023-01-25T03:45:27.600Z,-2.83
2023-01-25T03:46:31.128Z,-2.82
2023-01-25T03:47:34.260Z,-2.81
2023-01-25T03:48:37.407Z,-2.82
2023-01-25T03:49:40.784Z,-2.82
2023-01-25T03:50:49.553Z,-2.80
2023-01-25T03:51:53.071Z,-2.80
2023-01-25T03:52:59.993Z,-2.80
2023-01-25T03:54:03.928Z,-2.78
2023-01-25T03:55:09.462Z,-2.78
2023-01-25T03:56:19.284Z,-2.76
2023-01-25T03:57:27.050Z,-2.75
2023-01-25T03:58:32.041Z,-2.73
2023-01-25T03:59:35.225Z,-2.72
2023-01-25T04:00:38.554Z,-2.72
2023-01-25T04:01:41.690Z,-2.70
2023-01-25T04:02:44.760Z,-2.70
2023-01-25T04:03:49.383Z,-2.67
2023-01-25T04:04:53.046Z,-2.68
2023-01-25T04:05:57.660Z,-2.66
2023-01-25T04:07:00.933Z,-2.65
2023-01-25T04:08:04.907Z,-2.66
2023-01-25T04:09:09.832Z,-2.66
2023-01-25T04:10:15.365Z,-2.65
2023-01-25T04:11:20.367Z,-2.66
2023-01-25T04:12:23.752Z,-2.65
2023-01-25T04:13:27.367Z,-2.65
2023-01-25T04:14:43.604Z,-2.66
2023-01-25T04:15:37.330Z,-2.68
2023-01-25T04:16:42.439Z,-2.70
2023-01-25T04:18:02.345Z,-2.71
2023-01-25T04:19:05.667Z,-2.72
2023-01-25T04:20:10.797Z,-2.72
2023-01-25T04:21:15.769Z,-2.72
2023-01-25T04:22:19.218Z,-2.73
2023-01-25T04:23:25.120Z,-2.74
2023-01-25T04:24:28.590Z,-2.75
2023-01-25T04:25:31.727Z,-2.75
2023-01-25T04:26:35.042Z,-2.77
2023-01-25T04:27:38.628Z,-2.78
2023-01-25T04:28:43.487Z,-2.82
2023-01-25T04:29:46.786Z,-2.84
2023-01-25T04:30:52.739Z,-2.87
2023-01-25T04:31:56.233Z,-2.92
2023-01-25T04:33:04.788Z,-2.96
2023-01-25T04:34:08.040Z,-2.99
2023-01-25T04:35:11.703Z,-3.02
2023-01-25T04:36:15.052Z,-3.02
2023-01-25T04:37:18.981Z,-3.07
2023-01-25T04:38:24.203Z,-3.07
2023-01-25T04:39:27.442Z,-3.11
2023-01-25T04:40:30.659Z,-3.14
2023-01-25T04:41:33.833Z,-3.20
2023-01-25T04:42:37.007Z,-3.24
2023-01-25T04:43:40.611Z,-3.25
2023-01-25T04:44:45.483Z,-3.25
2023-01-25T04:45:49.703Z,-3.25
2023-01-25T04:46:58.239Z,-3.25
2023-01-25T04:48:03.398Z,-3.24
2023-01-25T04:49:06.697Z,-3.24
2023-01-25T04:50:11.221Z,-3.22
2023-01-25T04:51:14.472Z,-3.21
2023-01-25T04:52:17.736Z,-3.19
2023-01-25T04:53:21.341Z,-3.18
2023-01-25T04:54:24.825Z,-3.16
2023-01-25T04:55:27.884Z,-3.16
2023-01-25T04:56:32.653Z,-3.14
2023-01-25T04:57:35.627Z,-3.13
2023-01-25T04:58:38.821Z,-3.11
2023-01-25T04:59:42.410Z,-3.10
2023-01-25T05:00:45.567Z,-3.09
2023-01-25T05:01:48.817Z,-3.08
2023-01-25T05:02:51.894Z,-3.07
2023-01-25T05:03:55.048Z,-3.06
2023-01-25T05:05:03.344Z,-3.05
2023-01-25T05:06:06.809Z,-3.04
2023-01-25T05:07:10.155Z,-3.02
2023-01-25T05:08:13.306Z,-3.02
2023-01-25T05:09:17.130Z,-3.04
2023-01-25T05:10:20.559Z,-3.04
2023-01-25T05:11:42.118Z,-3.03
2023-01-25T05:12:50.136Z,-3.03
2023-01-25T05:13:54.361Z,-3.03
2023-01-25T05:14:59.397Z,-3.03
2023-01-25T05:16:02.589Z,-3.03
2023-01-25T05:17:06.795Z,-3.04
2023-01-25T05:18:10.102Z,-3.06
2023-01-25T05:19:13.771Z,-3.07
2023-01-25T05:20:30.558Z,-3.09
2023-01-25T05:21:52.425Z,-3.10
2023-01-25T05:22:55.663Z,-3.12
2023-01-25T05:23:59.050Z,-3.14
2023-01-25T05:25:03.392Z,-3.17
2023-01-25T05:26:26.811Z,-3.19
2023-01-25T05:27:30.073Z,-3.20
2023-01-25T05:28:35.065Z,-3.21
2023-01-25T05:29:48.963Z,-3.21
2023-01-25T05:30:52.585Z,-3.20
2023-01-25T05:32:00.657Z,-3.20
2023-01-25T05:33:05.263Z,-3.20
2023-01-25T05:34:09.723Z,-3.21
2023-01-25T05:35:12.981Z,-3.21
2023-01-25T05:36:16.135Z,-3.19
2023-01-25T05:37:20.742Z,-3.19
2023-01-25T05:38:25.849Z,-3.17
2023-01-25T05:39:29.532Z,-3.16
2023-01-25T05:40:33.220Z,-3.14
2023-01-25T05:41:36.538Z,-3.11
2023-01-25T05:42:39.999Z,-3.11
2023-01-25T05:43:49.713Z,-3.09
2023-01-25T05:44:54.115Z,-3.08
2023-01-25T05:45:58.021Z,-3.09
2023-01-25T05:47:01.548Z,-3.10
2023-01-25T05:48:04.781Z,-3.11
2023-01-25T05:49:07.840Z,-3.12
2023-01-25T05:50:11.672Z,-3.13
2023-01-25T05:51:16.629Z,-3.14
2023-01-25T05:52:20.018Z,-3.15
2023-01-25T05:53:26.508Z,-3.14
2023-01-25T05:54:29.773Z,-3.14
2023-01-25T05:55:36.375Z,-3.13
2023-01-25T05:56:41.769Z,-3.13
2023-01-25T05:57:45.071Z,-3.13
2023-01-25T05:58:53.519Z,-3.13
2023-01-25T05:59:56.604Z,-3.14
2023-01-25T06:01:01.845Z,-3.15
2023-01-25T06:02:06.980Z,-3.18
2023-01-25T06:03:10.263Z,-3.20
2023-01-25T06:04:16.188Z,-3.21
2023-01-25T06:05:19.358Z,-3.20
2023-01-25T06:06:23.043Z,-3.21
2023-01-25T06:07:26.204Z,-3.22
2023-01-25T06:08:30.507Z,-3.23
2023-01-25T06:09:33.552Z,-3.23
2023-01-25T06:10:37.317Z,-3.24
2023-01-25T06:11:45.160Z,-3.25
2023-01-25T06:12:48.250Z,-3.24
2023-01-25T06:13:51.504Z,-3.24
2023-01-25T06:14:54.678Z,-3.26
2023-01-25T06:15:58.234Z,-3.28
2023-01-25T06:17:21.048Z,-3.29
2023-01-25T06:18:35.719Z,-3.31
2023-01-25T06:19:43.594Z,-3.32
2023-01-25T06:20:51.631Z,-3.33
2023-01-25T06:21:56.477Z,-3.34
2023-01-25T06:22:59.654Z,-3.36
2023-01-25T06:24:04.084Z,-3.40
2023-01-25T06:25:08.610Z,-3.43
2023-01-25T06:26:14.573Z,-3.44
2023-01-25T06:27:17.747Z,-3.44
2023-01-25T06:28:20.951Z,-3.40
2023-01-25T06:29:24.065Z,-3.38
2023-01-25T06:30:27.344Z,-3.34
2023-01-25T06:31:30.457Z,-3.30
2023-01-25T06:32:33.671Z,-3.27
2023-01-25T06:33:37.710Z,-3.23
2023-01-25T06:34:40.886Z,-3.19
2023-01-25T06:35:45.858Z,-3.16
2023-01-25T06:36:49.025Z,-3.13
2023-01-25T06:37:56.693Z,-3.10
2023-01-25T06:39:00.667Z,-3.06
2023-01-25T06:40:04.545Z,-3.04
2023-01-25T06:41:11.979Z,-3.00
2023-01-25T06:42:15.307Z,-2.98
2023-01-25T06:43:18.448Z,-2.95
2023-01-25T06:44:21.684Z,-2.92
2023-01-25T06:45:24.790Z,-2.88
2023-01-25T06:46:27.965Z,-2.86
2023-01-25T06:47:31.188Z,-2.83
2023-01-25T06:48:35.304Z,-2.81
2023-01-25T06:49:38.422Z,-2.79
2023-01-25T06:50:41.814Z,-2.77
2023-01-25T06:51:45.029Z,-2.74
2023-01-25T06:52:52.726Z,-2.71
2023-01-25T06:53:55.944Z,-2.66
2023-01-25T06:54:59.192Z,-2.63
2023-01-25T06:56:10.751Z,-2.59
2023-01-25T06:57:13.704Z,-2.56
2023-01-25T06:58:16.797Z,-2.54
2023-01-25T06:59:20.176Z,-2.52
2023-01-25T07:00:23.733Z,-2.50
2023-01-25T07:01:27.061Z,-2.49
2023-01-25T07:02:30.368Z,-2.48
2023-01-25T07:03:34.248Z,-2.45
2023-01-25T07:04:37.355Z,-2.43
2023-01-25T07:05:40.881Z,-2.40
2023-01-25T07:06:44.156Z,-2.38
2023-01-25T07:07:47.372Z,-2.35
2023-01-25T07:08:50.781Z,-2.34
2023-01-25T07:09:53.994Z,-2.31
2023-01-25T07:10:59.689Z,-2.30
2023-01-25T07:12:04.306Z,-2.27
2023-01-25T07:13:08.019Z,-2.26
2023-01-25T07:14:11.262Z,-2.25
2023-01-25T07:15:14.532Z,-2.23
2023-01-25T07:16:19.866Z,-2.21
2023-01-25T07:17:23.100Z,-2.20
2023-01-25T07:18:28.044Z,-2.20
2023-01-25T07:19:31.309Z,-2.17
2023-01-25T07:20:34.699Z,-2.16
2023-01-25T07:21:37.786Z,-2.14
2023-01-25T07:22:40.975Z,-2.12
2023-01-25T07:23:44.284Z,-2.09
2023-01-25T07:24:49.219Z,-2.06
2023-01-25T07:25:52.441Z,-2.03
2023-01-25T07:26:55.538Z,-2.03
2023-01-25T07:27:58.742Z,-2.03
2023-01-25T07:29:01.870Z,-2.03
2023-01-25T07:30:06.075Z,-2.03
2023-01-25T07:31:09.457Z,-2.05
2023-01-25T07:32:13.800Z,-2.06
2023-01-25T07:33:16.971Z,-2.04
2023-01-25T07:34:20.291Z,-2.03
2023-01-25T07:35:23.465Z,-2.01
2023-01-25T07:36:26.881Z,-2.01
2023-01-25T07:37:30.135Z,-2.00
2023-01-25T07:38:33.903Z,-1.99
2023-01-25T07:39:36.996Z,-1.99
2023-01-25T07:40:40.144Z,-1.97
2023-01-25T07:41:43.306Z,-1.95
2023-01-25T07:42:48.216Z,-1.93
2023-01-25T07:43:53.628Z,-1.91
2023-01-25T07:44:59.073Z,-1.88
2023-01-25T07:46:05.355Z,-1.85
2023-01-25T07:47:08.595Z,-1.83
2023-01-25T07:48:11.815Z,-1.82
2023-01-25T07:49:14.878Z,-1.80
2023-01-25T07:50:18.271Z,-1.79
2023-01-25T07:51:23.216Z,-1.79
2023-01-25T07:52:26.667Z,-1.81
2023-01-25T07:53:29.851Z,-1.81
2023-01-25T07:54:33.148Z,-1.81
2023-01-25T07:55:36.524Z,-1.81
2023-01-25T07:56:40.107Z,-1.80
2023-01-25T07:57:43.171Z,-1.80
2023-01-25T07:58:46.370Z,-1.79
2023-01-25T07:59:49.502Z,-1.78
2023-01-25T08:00:53.304Z,-1.78
2023-01-25T08:01:56.512Z,-1.74
2023-01-25T08:02:59.702Z,-1.72
2023-01-25T08:04:04.415Z,-1.70
2023-01-25T08:05:08.576Z,-1.69
2023-01-25T08:06:12.269Z,-1.66
2023-01-25T08:07:15.504Z,-1.61
2023-01-25T08:08:18.768Z,-1.58
2023-01-25T08:09:22.084Z,-1.55
2023-01-25T08:10:25.372Z,-1.53
2023-01-25T08:11:30.648Z,-1.52
2023-01-25T08:12:34.567Z,-1.52
2023-01-25T08:13:37.886Z,-1.50
2023-01-25T08:14:42.125Z,-1.50
2023-01-25T08:15:48.929Z,-1.49
2023-01-25T08:16:52.625Z,-1.46
2023-01-25T08:18:00.406Z,-1.45
2023-01-25T08:19:04.271Z,-1.43
2023-01-25T08:20:08.545Z,-1.42
2023-01-25T08:21:11.667Z,-1.41
2023-01-25T08:22:14.903Z,-1.38
2023-01-25T08:23:19.814Z,-1.35
2023-01-25T08:24:24.697Z,-1.33
2023-01-25T08:25:28.088Z,-1.30
2023-01-25T08:26:31.456Z,-1.26
2023-01-25T08:27:34.700Z,-1.24
2023-01-25T08:28:37.971Z,-1.22
2023-01-25T08:29:41.253Z,-1.18
2023-01-25T08:30:56.550Z,-1.15
2023-01-25T08:31:49.717Z,-1.13
2023-01-25T08:32:53.722Z,-1.10
2023-01-25T08:33:57.797Z,-1.08
2023-01-25T08:35:01.006Z,-1.04
2023-01-25T08:36:05.477Z,-1.02
2023-01-25T08:37:08.728Z,-1.00
2023-01-25T08:38:11.949Z,-0.98
2023-01-25T08:39:17.601Z,-0.95
2023-01-25T08:40:20.919Z,-0.94
2023-01-25T08:41:25.045Z,-0.92
2023-01-25T08:42:28.234Z,-0.91
2023-01-25T08:43:31.492Z,-0.89
2023-01-25T08:44:34.666Z,-0.88
2023-01-25T08:45:37.997Z,-0.86
2023-01-25T08:46:41.187Z,-0.85
2023-01-25T08:47:44.410Z,-0.82
2023-01-25T08:48:47.656Z,-0.81
2023-01-25T08:49:51.909Z,-0.82
2023-01-25T08:50:55.374Z,-0.79
2023-01-25T08:51:58.642Z,-0.79
2023-01-25T08:53:01.733Z,-0.78
2023-01-25T08:54:10.435Z,-0.77
2023-01-25T08:55:13.643Z,-0.76
2023-01-25T08:56:17.242Z,-0.75
2023-01-25T08:57:20.507Z,-0.74
2023-01-25T08:58:23.708Z,-0.74
2023-01-25T08:59:26.973Z,-0.72
2023-01-25T09:00:30.341Z,-0.70
2023-01-25T09:01:33.495Z,-0.69
2023-01-25T09:02:36.796Z,-0.67
2023-01-25T09:03:45.569Z,-0.65
2023-01-25T09:04:48.860Z,-0.64
2023-01-25T09:05:54.160Z,-0.63
2023-01-25T09:06:57.583Z,-0.61
2023-01-25T09:08:01.845Z,-0.60
2023-01-25T09:09:05.492Z,-0.60
2023-01-25T09:10:10.585Z,-0.59
2023-01-25T09:11:17.278Z,-0.58
2023-01-25T09:12:20.479Z,-0.57
2023-01-25T09:13:23.710Z,-0.56
2023-01-25T09:14:26.957Z,-0.53
2023-01-25T09:15:30.262Z,-0.52
2023-01-25T09:16:33.444Z,-0.52
2023-01-25T09:17:38.434Z,-0.51
2023-01-25T09:18:43.738Z,-0.51
2023-01-25T09:19:47.608Z,-0.50
2023-01-25T09:20:50.812Z,-0.49
2023-01-25T09:21:54.026Z,-0.48
2023-01-25T09:22:57.212Z,-0.46
2023-01-25T09:24:08.426Z,-0.44
2023-01-25T09:25:05.976Z,-0.41
2023-01-25T09:26:10.683Z,-0.40
2023-01-25T09:27:13.938Z,-0.39
2023-01-25T09:28:17.153Z,-0.38
2023-01-25T09:29:20.254Z,-0.37
2023-01-25T09:30:33.937Z,-0.35
2023-01-25T09:31:29.696Z,-0.34
2023-01-25T09:32:38.558Z,-0.32
2023-01-25T09:33:42.369Z,-0.29
2023-01-25T09:34:45.514Z,-0.28
2023-01-25T09:35:49.250Z,-0.26
2023-01-25T09:36:52.706Z,-0.25
2023-01-25T09:37:55.985Z,-0.22
2023-01-25T09:38:59.437Z,-0.19
2023-01-25T09:40:04.377Z,-0.18
2023-01-25T09:41:33.909Z,-0.17
2023-01-25T09:42:58.615Z,-0.14
2023-01-25T09:44:26.604Z,-0.13
2023-01-25T09:45:34.816Z,-0.11
2023-01-25T09:46:49.746Z,-0.11
2023-01-25T09:48:28.446Z,-0.09
2023-01-25T09:49:44.129Z,-0.08
2023-01-25T09:51:00.036Z,-0.05
2023-01-25T09:52:09.635Z,-0.06
2023-01-25T09:53:22.107Z,-0.03
2023-01-25T09:54:28.496Z,0.00
2023-01-25T09:55:33.883Z,0.02
2023-01-25T09:56:38.066Z,0.04
2023-01-25T09:57:44.341Z,0.07
2023-01-25T09:58:50.591Z,0.11
2023-01-25T09:59:54.294Z,0.13
2023-01-25T10:01:19.514Z,0.15
2023-01-25T10:02:32.292Z,0.16
2023-01-25T10:03:54.206Z,0.20
2023-01-25T10:05:01.016Z,0.22
2023-01-25T10:06:04.566Z,0.24
2023-01-25T10:07:29.238Z,0.26
2023-01-25T10:08:42.402Z,0.27
2023-01-25T10:09:55.161Z,0.29
2023-01-25T10:11:01.947Z,0.29
2023-01-25T10:12:17.775Z,0.31
2023-01-25T10:13:23.766Z,0.32
2023-01-25T10:14:27.253Z,0.35
2023-01-25T10:15:37.922Z,0.37
2023-01-25T10:16:47.763Z,0.39
2023-01-25T10:17:56.358Z,0.40
2023-01-25T10:19:27.560Z,0.43
2023-01-25T10:20:40.279Z,0.45
2023-01-25T10:21:58.938Z,0.47
2023-01-25T10:23:24.833Z,0.50
2023-01-25T10:24:48.013Z,0.51
2023-01-25T10:26:00.062Z,0.54
2023-01-25T10:27:09.428Z,0.57
2023-01-25T10:28:38.702Z,0.58
2023-01-25T10:29:42.548Z,0.60
2023-01-25T10:30:52.315Z,0.63
2023-01-25T10:32:14.063Z,0.64
2023-01-25T10:33:20.094Z,0.66
2023-01-25T10:34:29.403Z,0.69
2023-01-25T10:35:39.046Z,0.72
2023-01-25T10:36:41.111Z,0.74
2023-01-25T10:37:45.702Z,0.77
2023-01-25T10:38:49.307Z,0.79
2023-01-25T10:39:56.054Z,0.83
2023-01-25T10:41:05.640Z,0.86
2023-01-25T10:42:12.178Z,0.89
2023-01-25T10:43:18.894Z,0.92
2023-01-25T10:44:28.303Z,0.95
2023-01-25T10:45:31.583Z,0.98
2023-01-25T10:46:35.801Z,1.03
2023-01-25T10:47:42.235Z,1.04
2023-01-25T10:48:45.445Z,1.07
2023-01-25T10:49:52.102Z,1.10
2023-01-25T10:50:57.018Z,1.12
2023-01-25T10:52:15.598Z,1.15
2023-01-25T10:53:24.807Z,1.18
2023-01-25T10:54:30.193Z,1.22
2023-01-25T10:55:33.314Z,1.24
2023-01-25T10:56:38.913Z,1.28
2023-01-25T10:57:48.902Z,1.30
2023-01-25T10:58:54.495Z,1.32
2023-01-25T11:00:00.408Z,1.33
2023-01-25T11:01:09.530Z,1.37
2023-01-25T11:02:37.450Z,1.37
2023-01-25T11:03:46.683Z,1.41
2023-01-25T11:04:49.970Z,1.43
2023-01-25T11:05:54.646Z,1.44
2023-01-25T11:06:59.332Z,1.44
2023-01-25T11:08:25.121Z,1.45
2023-01-25T11:09:39.059Z,1.47
2023-01-25T11:10:45.062Z,1.48
2023-01-25T11:11:57.544Z,1.49
2023-01-25T11:13:22.542Z,1.50
2023-01-25T11:14:28.137Z,1.51
2023-01-25T11:15:31.415Z,1.51
2023-01-25T11:16:38.046Z,1.51
2023-01-25T11:17:41.332Z,1.52
2023-01-25T11:18:53.286Z,1.53
2023-01-25T11:21:25.521Z,1.68
2023-01-25T11:22:28.814Z,1.58
2023-01-25T11:23:33.228Z,1.58
2023-01-25T11:24:54.548Z,1.58
2023-01-25T11:26:15.990Z,1.59
2023-01-25T11:27:24.654Z,1.60
2023-01-25T11:28:27.760Z,1.61
2023-01-25T11:29:31.056Z,1.62
2023-01-25T11:30:34.572Z,1.63
2023-01-25T11:31:39.963Z,1.65
2023-01-25T11:32:43.152Z,1.67
2023-01-25T11:33:46.441Z,1.67
2023-01-25T11:34:50.838Z,1.70
2023-01-25T11:36:00.546Z,1.71
2023-01-25T11:37:13.102Z,1.72
2023-01-25T11:38:19.775Z,1.72
2023-01-25T11:39:38.364Z,1.74
2023-01-25T11:40:48.183Z,1.75
2023-01-25T11:42:14.790Z,1.78
2023-01-25T11:43:21.489Z,1.78
2023-01-25T11:44:47.682Z,1.80
2023-01-25T11:45:59.342Z,1.80
2023-01-25T11:47:33.510Z,1.81
2023-01-25T11:48:49.766Z,1.82
2023-01-25T11:50:15.877Z,1.82
2023-01-25T11:51:25.368Z,1.83
2023-01-25T11:52:34.838Z,1.83
2023-01-25T11:54:10.441Z,1.84
2023-01-25T11:55:26.375Z,1.85
2023-01-25T11:56:52.047Z,1.84
2023-01-25T11:58:17.034Z,1.84
2023-01-25T11:59:55.453Z,1.85
2023-01-25T12:01:18.583Z,1.85
2023-01-25T12:02:58.521Z,1.86
2023-01-25T12:04:25.137Z,1.86
2023-01-25T12:05:46.344Z,1.87
2023-01-25T12:07:03.525Z,1.87
2023-01-25T12:08:43.565Z,1.88
2023-01-25T12:10:14.368Z,1.89
2023-01-25T12:11:36.044Z,1.91
2023-01-25T12:14:31.257Z,2.03
2023-01-25T12:15:38.037Z,1.92
2023-01-25T12:16:54.140Z,1.93
2023-01-25T12:18:09.894Z,1.94
2023-01-25T12:19:29.088Z,1.95
2023-01-25T12:20:55.270Z,1.97
2023-01-25T12:22:04.692Z,1.98
2023-01-25T12:23:17.283Z,2.00
2023-01-25T12:24:26.496Z,2.01
2023-01-25T12:25:49.672Z,2.02
2023-01-25T12:27:16.148Z,2.04
2023-01-25T12:28:23.243Z,2.04
2023-01-25T12:29:35.814Z,2.05
2023-01-25T12:30:54.290Z,2.05
2023-01-25T12:32:04.139Z,2.07
2023-01-25T12:34:35.027Z,2.21
2023-01-25T12:36:03.008Z,2.11
2023-01-25T12:37:21.746Z,2.11
2023-01-25T12:38:41.103Z,2.12
2023-01-25T12:39:50.737Z,2.12
2023-01-25T12:40:57.625Z,2.15
2023-01-25T12:43:23.671Z,2.26
2023-01-25T12:44:42.398Z,2.17
2023-01-25T12:45:47.081Z,2.17
2023-01-25T12:46:57.090Z,2.19
2023-01-25T12:48:09.649Z,2.20
2023-01-25T12:49:19.479Z,2.21
2023-01-25T12:50:50.558Z,2.21
2023-01-25T12:51:56.209Z,2.21
2023-01-25T12:53:02.979Z,2.22
2023-01-25T12:54:09.649Z,2.21
2023-01-25T12:55:14.692Z,2.24
2023-01-25T12:56:36.192Z,2.24
2023-01-25T12:58:01.028Z,2.24
2023-01-25T12:59:22.913Z,2.27
2023-01-25T13:00:48.429Z,2.27
2023-01-25T13:03:31.860Z,2.28
2023-01-25T13:06:37.502Z,2.39
2023-01-25T13:07:52.332Z,2.28
2023-01-25T13:09:02.753Z,2.26
2023-01-25T13:10:24.324Z,2.25
2023-01-25T13:11:33.924Z,2.24
2023-01-25T13:12:56.996Z,2.24
2023-01-25T13:14:27.772Z,2.24
2023-01-25T13:15:36.783Z,2.24
2023-01-25T13:16:42.693Z,2.24
2023-01-25T13:17:45.938Z,2.22
2023-01-25T13:18:49.040Z,2.22
2023-01-25T13:19:52.944Z,2.23
2023-01-25T13:21:03.527Z,2.23
2023-01-25T13:22:10.283Z,2.24
2023-01-25T13:23:45.253Z,2.23
2023-01-25T13:25:06.987Z,2.24
2023-01-25T13:26:27.496Z,2.23
2023-01-25T13:27:33.345Z,2.22
2023-01-25T13:28:46.143Z,2.21
2023-01-25T13:29:59.972Z,2.20
2023-01-25T13:31:03.272Z,2.20
2023-01-25T13:32:28.039Z,2.19
2023-01-25T13:33:35.623Z,2.18
2023-01-25T13:34:42.372Z,2.18
2023-01-25T13:35:45.679Z,2.17
2023-01-25T13:36:52.428Z,2.16
2023-01-25T13:38:19.004Z,2.15
2023-01-25T13:39:28.528Z,2.15
2023-01-25T13:40:37.133Z,2.14
2023-01-25T13:41:43.944Z,2.12
2023-01-25T13:43:05.768Z,2.10
2023-01-25T13:44:15.321Z,2.10
2023-01-25T13:45:20.905Z,2.09
2023-01-25T13:46:25.499Z,2.08
2023-01-25T13:47:37.598Z,2.07
2023-01-25T13:48:56.135Z,2.07
2023-01-25T13:50:19.547Z,2.07
2023-01-25T13:51:24.457Z,2.04
2023-01-25T13:52:30.644Z,2.02
2023-01-25T13:53:34.843Z,2.01
2023-01-25T13:54:45.540Z,2.00
2023-01-25T13:55:52.162Z,2.00
2023-01-25T13:57:03.509Z,1.99
2023-01-25T13:58:11.168Z,1.97
2023-01-25T13:59:27.279Z,1.95
2023-01-25T14:00:30.552Z,1.94
2023-01-25T14:01:35.649Z,1.93
2023-01-25T14:02:41.063Z,1.93
2023-01-25T14:03:50.861Z,1.91
2023-01-25T14:04:54.117Z,1.90
2023-01-25T14:06:01.688Z,1.89
2023-01-25T14:07:06.814Z,1.88
2023-01-25T14:08:10.616Z,1.86
2023-01-25T14:09:17.254Z,1.86
2023-01-25T14:10:23.752Z,1.85
2023-01-25T14:11:31.724Z,1.83
2023-01-25T14:12:38.379Z,1.81
2023-01-25T14:13:45.152Z,1.79
2023-01-25T14:14:48.889Z,1.78
2023-01-25T14:15:57.707Z,1.77
2023-01-25T14:17:12.981Z,1.76
2023-01-25T14:18:18.810Z,1.74
2023-01-25T14:19:28.794Z,1.72
2023-01-25T14:20:32.102Z,1.70
2023-01-25T14:21:35.448Z,1.69
2023-01-25T14:22:38.635Z,1.67
2023-01-25T14:23:41.881Z,1.65
2023-01-25T14:24:45.205Z,1.64
2023-01-25T14:25:48.629Z,1.63
2023-01-25T14:26:53.022Z,1.60
2023-01-25T14:27:58.819Z,1.60
2023-01-25T14:29:02.840Z,1.58
2023-01-25T14:30:19.203Z,1.56
2023-01-25T14:31:35.206Z,1.55
2023-01-25T14:32:41.385Z,1.54
2023-01-25T14:33:46.453Z,1.52
2023-01-25T14:34:49.698Z,1.50
2023-01-25T14:35:57.413Z,1.49
2023-01-25T14:37:17.556Z,1.47
2023-01-25T14:38:24.221Z,1.47
2023-01-25T14:39:28.857Z,1.45
2023-01-25T14:40:32.134Z,1.44
2023-01-25T14:41:48.459Z,1.43
2023-01-25T14:42:47.176Z,1.42
2023-01-25T14:43:53.102Z,1.41